Terminal Aerodrome Forecast
Issued by NWS

Home | Current Version | Previous Version | Graphics & Text | Print | Product List | Glossary On
Versions: 1 2 3 4 5 6 7 8 9 10 11 12 13 14 15 16 17 18 19 20 21 22 23 24 25
022
FTUS43 KBIS 131725
TAFDIK
TAF
KDIK 131725Z 1318/1418 11007KT P6SM BKN025
     FM132000 08008KT P6SM BKN035
     FM132200 08008KT P6SM SCT050
     FM140400 11007KT P6SM SKC
     FM141700 13011KT P6SM BKN120=

USA.gov is the U.S. government's official web portal to all federal, state and local government web resources and services.